Time;durP1;ratioP1;P1;durP2;ratioP2;P2;SDS_P1;SDS_P2;PMS_P1;PMS_P2;Temp;Humidity;BMP_temperature;BMP_pressure;BME280_temperature;BME280_humidity;BME280_pressure;Samples;Min_cycle;Max_cycle;Signal;HPM_P1;HPM_P2
2021/09/18 00:02:22;;;;;;;4.15;1.00;;;;;;;;;;5029208;28;20017;-69
2021/09/18 00:04:49;;;;;;;2.92;0.85;;;;;;;;;;5032028;28;20037;-69
2021/09/18 00:07:16;;;;;;;4.10;1.13;;;;;;;;;;5043402;28;20053;-69
2021/09/18 00:09:43;;;;;;;2.95;0.90;;;;;;;;;;5031302;28;20088;-69
2021/09/18 00:12:10;;;;;;;4.75;1.13;;;;;;;;;;5028455;28;20076;-69
2021/09/18 00:14:39;;;;;;;2.55;0.80;;;;;;;;;;5024832;28;20064;-69
2021/09/18 00:17:07;;;;;;;3.83;1.30;;;;;;;;;;5031000;28;20108;-69
2021/09/18 00:19:34;;;;;;;3.55;1.20;;;;;;;;;;5035184;28;20546;-69
2021/09/18 00:22:01;;;;;;;3.92;1.13;;;;;;;;;;5035103;28;20124;-69
2021/09/18 00:24:28;;;;;;;6.15;1.33;;;;;;;;;;5030122;28;20133;-68
2021/09/18 00:26:55;;;;;;;4.32;2.33;;;;;;;;;;5032644;28;20075;-69
2021/09/18 00:29:23;;;;;;;10.27;2.80;;;;;;;;;;5023864;28;20056;-69
2021/09/18 00:31:50;;;;;;;8.43;2.60;;;;;;;;;;5040857;28;20039;-69
2021/09/18 00:34:17;;;;;;;6.60;2.00;;;;;;;;;;5027833;28;20116;-70
2021/09/18 00:36:44;;;;;;;5.70;2.15;;;;;;;;;;5038999;28;20066;-70
2021/09/18 00:39:11;;;;;;;6.85;2.20;;;;;;;;;;5026215;28;20037;-68
2021/09/18 00:41:38;;;;;;;6.10;2.58;;;;;;;;;;5032559;28;20026;-67
2021/09/18 00:44:08;;;;;;;6.20;2.22;;;;;;;;;;5029644;28;20649;-69
2021/09/18 00:46:35;;;;;;;7.00;2.72;;;;;;;;;;5029107;28;20025;-69
2021/09/18 00:49:02;;;;;;;6.97;2.55;;;;;;;;;;5024079;28;20034;-68
2021/09/18 00:51:29;;;;;;;7.45;1.75;;;;;;;;;;5026352;28;20025;-69
2021/09/18 00:53:56;;;;;;;6.70;2.63;;;;;;;;;;5029561;28;20030;-69
2021/09/18 00:56:23;;;;;;;5.85;2.40;;;;;;;;;;5028595;28;20156;-69
2021/09/18 00:58:51;;;;;;;8.95;3.22;;;;;;;;;;5025086;28;20090;-69
2021/09/18 01:01:18;;;;;;;8.00;3.17;;;;;;;;;;5028311;28;20028;-68
2021/09/18 01:03:45;;;;;;;6.82;1.83;;;;;;;;;;5025844;28;20038;-68
2021/09/18 01:06:14;;;;;;;9.55;3.20;;;;;;;;;;5020922;28;20417;-69
2021/09/18 01:08:42;;;;;;;4.95;1.50;;;;;;;;;;5030633;28;20053;-69
2021/09/18 01:11:09;;;;;;;4.35;1.52;;;;;;;;;;5031935;28;20104;-69
2021/09/18 01:13:36;;;;;;;6.22;1.50;;;;;;;;;;5026132;28;20466;-69
2021/09/18 01:16:03;;;;;;;3.97;1.55;;;;;;;;;;5028263;28;21795;-69
2021/09/18 01:18:31;;;;;;;5.38;1.48;;;;;;;;;;5030950;28;20087;-69
2021/09/18 01:20:58;;;;;;;6.60;2.10;;;;;;;;;;5034678;28;20045;-69
2021/09/18 01:23:25;;;;;;;5.22;1.42;;;;;;;;;;5033818;28;20025;-69
2021/09/18 01:25:52;;;;;;;5.30;1.40;;;;;;;;;;5030672;28;20104;-69
2021/09/18 01:28:20;;;;;;;3.08;1.30;;;;;;;;;;5030336;28;20125;-66
2021/09/18 01:30:47;;;;;;;5.05;1.50;;;;;;;;;;5034129;28;20030;-67
2021/09/18 01:33:14;;;;;;;6.15;1.70;;;;;;;;;;5031339;28;20048;-68
2021/09/18 01:35:42;;;;;;;5.90;1.48;;;;;;;;;;5035765;28;20018;-68
2021/09/18 01:38:09;;;;;;;6.82;1.80;;;;;;;;;;5028568;28;20032;-68
2021/09/18 01:40:38;;;;;;;6.25;0.90;;;;;;;;;;5031141;28;20504;-68
2021/09/18 01:43:05;;;;;;;4.90;1.25;;;;;;;;;;5029730;28;20043;-68
2021/09/18 01:45:33;;;;;;;7.05;2.20;;;;;;;;;;5030942;28;20025;-68
2021/09/18 01:48:02;;;;;;;3.15;0.90;;;;;;;;;;5030209;28;20026;-68
2021/09/18 01:51:00;;;;;;;4.18;1.58;;;;;;;;;;5030060;28;20033;-68
2021/09/18 01:53:30;;;;;;;5.10;1.38;;;;;;;;;;5030183;28;20136;-69
2021/09/18 01:55:58;;;;;;;4.13;1.35;;;;;;;;;;5034254;28;20044;-69
2021/09/18 01:58:25;;;;;;;4.03;1.23;;;;;;;;;;5031755;28;20437;-69
2021/09/18 02:00:54;;;;;;;4.47;1.42;;;;;;;;;;5035194;28;20136;-69
2021/09/18 02:03:21;;;;;;;2.63;1.10;;;;;;;;;;5033146;28;20028;-69
2021/09/18 02:05:49;;;;;;;4.20;1.08;;;;;;;;;;5035139;28;20024;-69
2021/09/18 02:08:16;;;;;;;5.47;1.42;;;;;;;;;;5028618;28;20075;-70
2021/09/18 02:10:43;;;;;;;2.17;1.02;;;;;;;;;;5034289;28;20029;-69
2021/09/18 02:13:11;;;;;;;8.00;2.08;;;;;;;;;;5032479;28;20452;-69
2021/09/18 02:15:38;;;;;;;3.80;1.67;;;;;;;;;;5028535;28;20036;-69
2021/09/18 02:18:05;;;;;;;1.98;1.00;;;;;;;;;;5032782;28;20026;-69
2021/09/18 02:20:33;;;;;;;3.22;0.90;;;;;;;;;;5032098;28;20045;-69
2021/09/18 02:23:03;;;;;;;3.47;1.20;;;;;;;;;;5033032;28;20029;-69
2021/09/18 02:25:31;;;;;;;3.78;1.02;;;;;;;;;;5028341;28;20502;-69
2021/09/18 02:27:59;;;;;;;7.13;1.30;;;;;;;;;;5017147;28;20545;-70
2021/09/18 02:30:27;;;;;;;3.58;1.42;;;;;;;;;;5034920;28;20025;-70
2021/09/18 02:32:55;;;;;;;4.00;1.70;;;;;;;;;;5032917;28;20360;-70
2021/09/18 02:35:24;;;;;;;5.15;1.35;;;;;;;;;;5030922;28;20041;-70
2021/09/18 02:37:52;;;;;;;6.13;1.33;;;;;;;;;;5030643;28;20038;-69
2021/09/18 02:40:19;;;;;;;4.05;1.63;;;;;;;;;;5033838;28;20025;-69
2021/09/18 02:42:48;;;;;;;4.80;1.30;;;;;;;;;;5025790;28;20508;-69
2021/09/18 02:45:15;;;;;;;3.78;1.10;;;;;;;;;;5033185;28;20509;-69
2021/09/18 02:47:43;;;;;;;2.78;1.63;;;;;;;;;;5031920;28;21688;-70
2021/09/18 02:50:11;;;;;;;2.35;1.20;;;;;;;;;;5034238;28;20025;-69
2021/09/18 02:52:39;;;;;;;5.60;1.40;;;;;;;;;;5031502;28;20422;-69
2021/09/18 02:55:06;;;;;;;4.20;1.30;;;;;;;;;;5027519;28;20032;-69
2021/09/18 02:57:34;;;;;;;2.15;1.00;;;;;;;;;;5029277;28;20053;-69
2021/09/18 03:00:01;;;;;;;3.65;1.13;;;;;;;;;;5030498;28;20099;-69
2021/09/18 03:02:31;;;;;;;2.83;1.10;;;;;;;;;;5013989;28;20026;-69
2021/09/18 03:04:58;;;;;;;6.18;1.95;;;;;;;;;;5032630;28;20026;-69
2021/09/18 03:07:25;;;;;;;4.30;1.60;;;;;;;;;;5033419;28;20425;-69
2021/09/18 03:09:52;;;;;;;3.60;1.45;;;;;;;;;;5032045;28;20091;-69
2021/09/18 03:12:19;;;;;;;3.33;1.35;;;;;;;;;;5029876;28;20025;-70
2021/09/18 03:14:46;;;;;;;5.18;1.25;;;;;;;;;;5029011;28;20461;-70
2021/09/18 03:17:13;;;;;;;8.25;1.55;;;;;;;;;;5033461;28;20022;-70
2021/09/18 03:19:41;;;;;;;7.57;1.70;;;;;;;;;;5030713;28;20025;-70
2021/09/18 03:22:08;;;;;;;6.43;2.20;;;;;;;;;;5032907;28;20038;-70
2021/09/18 03:24:35;;;;;;;5.68;2.80;;;;;;;;;;5029760;28;20052;-70
2021/09/18 03:27:02;;;;;;;8.30;2.17;;;;;;;;;;5027588;28;20072;-70
2021/09/18 03:29:29;;;;;;;8.68;2.03;;;;;;;;;;5027342;28;20065;-70
2021/09/18 03:31:59;;;;;;;6.22;2.22;;;;;;;;;;5031423;28;20021;-69
2021/09/18 03:34:26;;;;;;;5.20;1.92;;;;;;;;;;5026403;28;20079;-69
2021/09/18 03:36:54;;;;;;;6.03;2.15;;;;;;;;;;5029868;28;20434;-71
2021/09/18 03:39:21;;;;;;;6.70;2.28;;;;;;;;;;5024809;28;20041;-72
2021/09/18 03:41:48;;;;;;;6.93;2.97;;;;;;;;;;5028484;28;20031;-72
2021/09/18 03:44:15;;;;;;;7.28;2.80;;;;;;;;;;5026993;28;20093;-71
2021/09/18 03:46:42;;;;;;;6.70;2.45;;;;;;;;;;5028694;28;20104;-71
2021/09/18 03:49:09;;;;;;;7.90;3.10;;;;;;;;;;5025244;28;20450;-72
2021/09/18 03:51:36;;;;;;;6.13;2.55;;;;;;;;;;5029868;28;20028;-71
2021/09/18 03:54:03;;;;;;;7.30;2.42;;;;;;;;;;5027661;28;20025;-71
2021/09/18 03:56:30;;;;;;;5.88;2.25;;;;;;;;;;5026393;28;20070;-71
2021/09/18 03:58:58;;;;;;;9.10;3.33;;;;;;;;;;5027294;28;20045;-71
2021/09/18 04:01:25;;;;;;;12.23;3.28;;;;;;;;;;5029344;28;20445;-71
2021/09/18 04:03:52;;;;;;;9.23;3.03;;;;;;;;;;5028160;28;20030;-71
2021/09/18 04:06:19;;;;;;;12.88;3.22;;;;;;;;;;5027842;28;20048;-71
2021/09/18 04:08:46;;;;;;;10.13;3.63;;;;;;;;;;5028927;28;20029;-70
2021/09/18 04:11:13;;;;;;;5.88;3.95;;;;;;;;;;5028665;28;20045;-69
2021/09/18 04:13:40;;;;;;;8.90;3.25;;;;;;;;;;5026495;28;20025;-70
2021/09/18 04:16:07;;;;;;;10.00;3.00;;;;;;;;;;5028309;28;20382;-71
2021/09/18 04:18:34;;;;;;;10.35;3.33;;;;;;;;;;5028035;28;20033;-70
2021/09/18 04:21:02;;;;;;;12.45;2.97;;;;;;;;;;5029581;28;20453;-70
2021/09/18 04:23:33;;;;;;;10.18;2.92;;;;;;;;;;5026835;28;22377;-71
2021/09/18 04:26:00;;;;;;;11.38;3.17;;;;;;;;;;5029873;28;20084;-71
2021/09/18 04:28:27;;;;;;;14.40;4.07;;;;;;;;;;5025155;28;20076;-70
2021/09/18 04:30:55;;;;;;;13.77;3.60;;;;;;;;;;5028846;28;20109;-71
2021/09/18 04:33:22;;;;;;;14.52;3.42;;;;;;;;;;5028192;28;20079;-70
2021/09/18 04:35:49;;;;;;;12.18;3.55;;;;;;;;;;5028757;28;20087;-70
2021/09/18 04:38:17;;;;;;;9.35;3.30;;;;;;;;;;5030577;28;20486;-69
2021/09/18 04:40:44;;;;;;;14.73;3.75;;;;;;;;;;5032684;28;20022;-69
2021/09/18 04:43:12;;;;;;;10.85;4.00;;;;;;;;;;5030591;28;20028;-70
2021/09/18 04:45:39;;;;;;;11.68;3.33;;;;;;;;;;5026910;28;20025;-70
2021/09/18 04:48:06;;;;;;;9.70;3.42;;;;;;;;;;5029444;28;20022;-70
2021/09/18 04:50:33;;;;;;;8.07;3.42;;;;;;;;;;5031391;28;20081;-72
2021/09/18 04:53:00;;;;;;;7.78;1.67;;;;;;;;;;5028793;28;20391;-71
2021/09/18 04:55:27;;;;;;;4.38;1.27;;;;;;;;;;5032178;28;20021;-72
2021/09/18 04:57:54;;;;;;;4.60;1.30;;;;;;;;;;5030652;28;20048;-71
2021/09/18 05:00:21;;;;;;;4.30;0.90;;;;;;;;;;5029088;28;20034;-72
2021/09/18 05:02:49;;;;;;;6.22;1.17;;;;;;;;;;5030555;28;20025;-71
2021/09/18 05:05:16;;;;;;;3.70;0.68;;;;;;;;;;5032146;28;20075;-71
2021/09/18 05:07:43;;;;;;;1.23;0.50;;;;;;;;;;5028528;28;20470;-71
2021/09/18 05:10:10;;;;;;;1.00;0.50;;;;;;;;;;5031763;28;20037;-70
2021/09/18 05:12:37;;;;;;;1.27;0.40;;;;;;;;;;5029059;28;20044;-69
2021/09/18 05:15:05;;;;;;;1.65;0.68;;;;;;;;;;5029815;28;20382;-70
2021/09/18 05:17:33;;;;;;;1.58;0.50;;;;;;;;;;5031030;28;20025;-70
2021/09/18 05:20:00;;;;;;;2.55;0.50;;;;;;;;;;5030927;28;20038;-69
2021/09/18 05:22:27;;;;;;;1.27;0.40;;;;;;;;;;5027125;28;20025;-70
2021/09/18 05:24:55;;;;;;;5.28;0.60;;;;;;;;;;5028882;28;20037;-71
2021/09/18 05:27:22;;;;;;;3.28;1.17;;;;;;;;;;5029438;28;20041;-69
2021/09/18 05:29:49;;;;;;;1.27;0.50;;;;;;;;;;5030054;28;20095;-70
2021/09/18 05:32:16;;;;;;;4.82;1.08;;;;;;;;;;5031685;28;20060;-71
2021/09/18 05:34:43;;;;;;;1.73;0.40;;;;;;;;;;5026658;28;20036;-71
2021/09/18 05:37:10;;;;;;;2.47;0.43;;;;;;;;;;5027956;28;20025;-72
2021/09/18 05:39:37;;;;;;;1.75;0.60;;;;;;;;;;5022527;28;20569;-71
2021/09/18 05:42:05;;;;;;;2.55;0.75;;;;;;;;;;5031090;28;20033;-69
2021/09/18 05:44:32;;;;;;;2.97;0.80;;;;;;;;;;5029225;28;20033;-69
2021/09/18 05:46:59;;;;;;;1.73;0.73;;;;;;;;;;5027071;28;20029;-72
2021/09/18 05:49:26;;;;;;;2.55;0.60;;;;;;;;;;5028917;28;20029;-72
2021/09/18 05:51:53;;;;;;;2.40;0.63;;;;;;;;;;5030653;28;20018;-73
2021/09/18 05:54:20;;;;;;;1.38;0.73;;;;;;;;;;5029755;28;20024;-73
2021/09/18 05:56:47;;;;;;;2.15;0.50;;;;;;;;;;5031335;28;20029;-73
2021/09/18 05:59:14;;;;;;;2.40;0.60;;;;;;;;;;5029209;28;20481;-73
2021/09/18 06:01:41;;;;;;;1.25;0.57;;;;;;;;;;5031689;28;20057;-73
2021/09/18 06:04:09;;;;;;;1.30;0.50;;;;;;;;;;5028363;28;21733;-70
2021/09/18 06:06:36;;;;;;;0.50;0.38;;;;;;;;;;5034212;28;20025;-71
2021/09/18 06:09:03;;;;;;;1.83;0.52;;;;;;;;;;5031903;28;20032;-72
2021/09/18 06:11:30;;;;;;;1.52;0.50;;;;;;;;;;5034423;28;20026;-73
2021/09/18 06:13:57;;;;;;;1.05;0.52;;;;;;;;;;5028982;28;20021;-73
2021/09/18 06:16:24;;;;;;;0.88;0.65;;;;;;;;;;5033527;28;20374;-72
2021/09/18 06:18:52;;;;;;;2.83;0.82;;;;;;;;;;5031306;28;20025;-73
2021/09/18 06:21:20;;;;;;;1.50;0.60;;;;;;;;;;5032975;28;20041;-72
2021/09/18 06:23:47;;;;;;;2.45;0.55;;;;;;;;;;5032854;28;20022;-72
2021/09/18 06:26:16;;;;;;;1.30;0.45;;;;;;;;;;5034340;28;20026;-72
2021/09/18 06:28:44;;;;;;;3.20;0.50;;;;;;;;;;5031471;28;20028;-72
2021/09/18 06:31:11;;;;;;;2.83;0.70;;;;;;;;;;5033183;28;20029;-72
2021/09/18 06:33:38;;;;;;;1.30;0.57;;;;;;;;;;5030966;28;20033;-69
2021/09/18 06:36:05;;;;;;;1.77;0.65;;;;;;;;;;5034965;28;20386;-70
2021/09/18 06:38:33;;;;;;;2.63;0.50;;;;;;;;;;5044390;28;20045;-67
2021/09/18 06:41:00;;;;;;;1.45;0.60;;;;;;;;;;5053348;28;20009;-67
2021/09/18 06:43:28;;;;;;;2.25;0.70;;;;;;;;;;5051839;28;20002;-67
2021/09/18 06:45:56;;;;;;;2.40;0.30;;;;;;;;;;5056001;28;20033;-67
2021/09/18 06:48:23;;;;;;;2.30;0.50;;;;;;;;;;5052855;28;20432;-66
2021/09/18 06:50:50;;;;;;;0.88;0.40;;;;;;;;;;5054099;28;20040;-67
2021/09/18 06:53:18;;;;;;;1.95;0.45;;;;;;;;;;5055592;28;20073;-66
2021/09/18 06:55:45;;;;;;;1.33;0.50;;;;;;;;;;5057553;28;20040;-67
2021/09/18 06:58:12;;;;;;;1.05;0.60;;;;;;;;;;5056657;28;20033;-67
2021/09/18 07:00:39;;;;;;;1.52;0.70;;;;;;;;;;5052100;28;20037;-65
2021/09/18 07:03:06;;;;;;;3.25;0.93;;;;;;;;;;5051120;28;20435;-66
2021/09/18 07:05:33;;;;;;;1.77;0.55;;;;;;;;;;5047115;28;20036;-66
2021/09/18 07:08:00;;;;;;;1.98;0.30;;;;;;;;;;5052812;28;20021;-67
2021/09/18 07:10:28;;;;;;;1.77;0.40;;;;;;;;;;5049332;28;20029;-64
2021/09/18 07:12:55;;;;;;;1.33;0.30;;;;;;;;;;5048037;28;20069;-64
2021/09/18 07:15:22;;;;;;;1.45;0.63;;;;;;;;;;5048155;28;20025;-64
2021/09/18 07:17:49;;;;;;;1.88;0.55;;;;;;;;;;5045946;28;20021;-64
2021/09/18 07:20:16;;;;;;;1.55;0.47;;;;;;;;;;5053206;28;20061;-66
2021/09/18 07:22:44;;;;;;;1.42;0.40;;;;;;;;;;5051446;28;20098;-64
2021/09/18 07:25:11;;;;;;;2.30;0.47;;;;;;;;;;5050057;28;20154;-64
2021/09/18 07:27:39;;;;;;;2.08;0.50;;;;;;;;;;5046052;28;20036;-65
2021/09/18 07:30:07;;;;;;;1.58;0.40;;;;;;;;;;5039211;28;20258;-64
2021/09/18 07:32:34;;;;;;;2.60;0.50;;;;;;;;;;5047225;28;20022;-66
2021/09/18 07:35:05;;;;;;;1.27;0.55;;;;;;;;;;5046125;28;20028;-65
2021/09/18 07:37:33;;;;;;;1.35;0.40;;;;;;;;;;5045413;28;20022;-65
2021/09/18 07:40:01;;;;;;;1.33;0.40;;;;;;;;;;5042804;28;20021;-65
2021/09/18 07:42:28;;;;;;;1.45;0.30;;;;;;;;;;5044416;28;20093;-65
2021/09/18 07:44:55;;;;;;;1.95;0.40;;;;;;;;;;5049104;28;20029;-64
2021/09/18 07:47:22;;;;;;;1.98;0.55;;;;;;;;;;5050478;28;20028;-65
2021/09/18 07:49:49;;;;;;;2.10;0.65;;;;;;;;;;5044521;28;20021;-67
2021/09/18 07:52:17;;;;;;;2.50;0.75;;;;;;;;;;5046826;28;20089;-65
2021/09/18 07:54:44;;;;;;;3.65;0.70;;;;;;;;;;5043474;28;20725;-66
2021/09/18 07:57:12;;;;;;;1.77;0.40;;;;;;;;;;5043784;28;20025;-66
2021/09/18 07:59:39;;;;;;;1.85;0.60;;;;;;;;;;5041040;28;20036;-66
2021/09/18 08:02:06;;;;;;;2.22;1.00;;;;;;;;;;5051584;28;20036;-65
2021/09/18 08:04:33;;;;;;;3.65;0.98;;;;;;;;;;5049981;28;20017;-66
2021/09/18 08:07:01;;;;;;;1.90;0.65;;;;;;;;;;5044270;28;20021;-64
2021/09/18 08:09:28;;;;;;;2.85;0.60;;;;;;;;;;5041392;28;20017;-65
2021/09/18 08:11:58;;;;;;;1.55;0.50;;;;;;;;;;5043112;28;20033;-67
2021/09/18 08:14:25;;;;;;;3.03;0.60;;;;;;;;;;5044467;28;20017;-66
2021/09/18 08:16:53;;;;;;;1.83;0.68;;;;;;;;;;5044716;28;20021;-66
2021/09/18 08:19:20;;;;;;;1.13;0.57;;;;;;;;;;5039053;28;20029;-67
2021/09/18 08:21:49;;;;;;;2.53;0.90;;;;;;;;;;5031085;28;20057;-66
2021/09/18 08:24:17;;;;;;;1.75;0.77;;;;;;;;;;5030890;28;20490;-66
2021/09/18 08:26:44;;;;;;;4.00;1.10;;;;;;;;;;5040571;28;20112;-65
2021/09/18 08:29:12;;;;;;;4.43;1.55;;;;;;;;;;5041176;28;20044;-66
2021/09/18 08:31:39;;;;;;;4.97;1.58;;;;;;;;;;5037266;28;20036;-66
2021/09/18 08:34:06;;;;;;;4.18;1.20;;;;;;;;;;5044604;28;20018;-65
2021/09/18 08:36:33;;;;;;;4.05;1.73;;;;;;;;;;5049484;28;20026;-64
2021/09/18 08:39:00;;;;;;;2.97;1.48;;;;;;;;;;5047289;28;20040;-65
2021/09/18 08:41:30;;;;;;;4.25;1.90;;;;;;;;;;5041005;28;20021;-65
2021/09/18 08:43:58;;;;;;;6.22;2.05;;;;;;;;;;5041744;28;20017;-65
2021/09/18 08:46:26;;;;;;;3.00;1.00;;;;;;;;;;5044875;28;20033;-65
2021/09/18 08:48:54;;;;;;;2.42;0.80;;;;;;;;;;5042187;28;20034;-65
2021/09/18 08:51:22;;;;;;;4.00;0.90;;;;;;;;;;5050478;28;20014;-66
2021/09/18 08:53:49;;;;;;;2.35;1.10;;;;;;;;;;5039587;28;20042;-66
2021/09/18 08:56:18;;;;;;;3.33;1.05;;;;;;;;;;5043157;28;20040;-66
2021/09/18 08:58:45;;;;;;;3.53;0.90;;;;;;;;;;5039600;28;20097;-67
2021/09/18 09:01:13;;;;;;;3.05;0.70;;;;;;;;;;5043180;28;20018;-67
2021/09/18 09:03:41;;;;;;;1.67;0.60;;;;;;;;;;5047494;28;20075;-66
2021/09/18 09:06:09;;;;;;;2.65;0.88;;;;;;;;;;5039640;28;20112;-66
2021/09/18 09:08:38;;;;;;;4.15;0.93;;;;;;;;;;5031487;28;20067;-67
2021/09/18 09:11:19;;;;;;;3.70;1.13;;;;;;;;;;5039555;28;20022;-66
2021/09/18 09:13:57;;;;;;;4.68;0.82;;;;;;;;;;5036283;28;20087;-66
2021/09/18 09:16:24;;;;;;;3.55;0.93;;;;;;;;;;5037979;28;20013;-67
2021/09/18 09:18:51;;;;;;;5.93;1.08;;;;;;;;;;5042894;28;20044;-67
2021/09/18 09:21:20;;;;;;;3.65;0.85;;;;;;;;;;5046859;28;20104;-66
2021/09/18 09:24:05;;;;;;;6.25;1.42;;;;;;;;;;5041300;28;20496;-66
2021/09/18 09:26:33;;;;;;;2.58;0.70;;;;;;;;;;5045988;28;20520;-66
2021/09/18 09:29:00;;;;;;;5.28;1.10;;;;;;;;;;5044598;28;20060;-65
2021/09/18 09:31:29;;;;;;;4.57;1.00;;;;;;;;;;5045290;28;20025;-66
2021/09/18 09:34:01;;;;;;;3.05;1.00;;;;;;;;;;5038192;28;20017;-66
2021/09/18 09:36:28;;;;;;;3.17;1.20;;;;;;;;;;5039668;28;20104;-66
2021/09/18 09:38:57;;;;;;;5.53;1.27;;;;;;;;;;5040353;28;20116;-65
2021/09/18 09:41:31;;;;;;;6.57;1.40;;;;;;;;;;5039453;28;20039;-68
2021/09/18 09:43:58;;;;;;;4.00;0.90;;;;;;;;;;5027214;28;20032;-68
2021/09/18 09:46:26;;;;;;;2.72;1.02;;;;;;;;;;5035541;28;20064;-68
2021/09/18 09:49:10;;;;;;;4.03;1.15;;;;;;;;;;5036827;28;20033;-67
2021/09/18 09:51:37;;;;;;;3.45;1.15;;;;;;;;;;5040378;28;20017;-67
2021/09/18 09:54:25;;;;;;;5.75;1.45;;;;;;;;;;5033157;28;20389;-68
2021/09/18 09:57:08;;;;;;;6.47;2.55;;;;;;;;;;5035634;28;20029;-67
2021/09/18 09:59:36;;;;;;;6.75;1.73;;;;;;;;;;5031650;28;20045;-68
2021/09/18 10:02:04;;;;;;;7.18;2.00;;;;;;;;;;5034608;28;20057;-68
2021/09/18 10:04:32;;;;;;;5.95;1.50;;;;;;;;;;5034094;28;20052;-68
2021/09/18 10:06:59;;;;;;;4.28;1.60;;;;;;;;;;5021346;28;20021;-67
2021/09/18 10:09:27;;;;;;;3.28;1.67;;;;;;;;;;5026253;28;20386;-68
2021/09/18 10:11:55;;;;;;;2.38;1.13;;;;;;;;;;5028546;28;20018;-67
2021/09/18 10:14:25;;;;;;;4.00;1.83;;;;;;;;;;5033301;28;20482;-67
2021/09/18 10:16:55;;;;;;;4.75;1.88;;;;;;;;;;5037514;28;20022;-68
2021/09/18 10:19:54;;;;;;;5.90;2.33;;;;;;;;;;5031084;28;20026;-67
2021/09/18 10:25:18;;;;;;;3.40;1.60;;;;;;;;;;5029305;28;20060;-68
2021/09/18 10:27:59;;;;;;;6.13;1.98;;;;;;;;;;5039470;28;20029;-67
2021/09/18 10:30:33;;;;;;;5.05;1.85;;;;;;;;;;5038289;28;20021;-67
2021/09/18 10:33:01;;;;;;;5.25;1.70;;;;;;;;;;5036846;28;20064;-67
2021/09/18 10:35:30;;;;;;;5.20;1.58;;;;;;;;;;5039032;28;20390;-67
2021/09/18 10:37:57;;;;;;;6.03;2.03;;;;;;;;;;5033582;28;20053;-67
2021/09/18 10:40:24;;;;;;;4.93;2.03;;;;;;;;;;5036525;28;20052;-67
2021/09/18 10:42:52;;;;;;;4.55;1.33;;;;;;;;;;5035035;28;20032;-67
2021/09/18 10:45:20;;;;;;;6.68;1.52;;;;;;;;;;5040150;28;20071;-67
2021/09/18 10:47:48;;;;;;;3.88;1.27;;;;;;;;;;5033865;28;20029;-67
2021/09/18 10:50:24;;;;;;;4.18;1.58;;;;;;;;;;5034893;28;20029;-67
2021/09/18 10:53:19;;;;;;;5.13;0.90;;;;;;;;;;5035871;28;20028;-67
2021/09/18 10:55:52;;;;;;;4.18;1.25;;;;;;;;;;5035258;28;20036;-67
2021/09/18 10:58:19;;;;;;;3.63;1.00;;;;;;;;;;5020376;28;20030;-66
2021/09/18 11:00:50;;;;;;;4.35;1.33;;;;;;;;;;5034333;28;20021;-67
2021/09/18 11:03:34;;;;;;;6.50;1.63;;;;;;;;;;5034128;28;20069;-66
2021/09/18 11:06:02;;;;;;;3.53;0.75;;;;;;;;;;5028723;28;20581;-66
2021/09/18 11:08:30;;;;;;;3.33;1.00;;;;;;;;;;5032725;28;20367;-66
2021/09/18 11:10:58;;;;;;;3.78;1.23;;;;;;;;;;5032349;28;20048;-69
2021/09/18 11:13:39;;;;;;;5.72;1.55;;;;;;;;;;5031593;28;20108;-67
2021/09/18 11:16:08;;;;;;;5.07;1.23;;;;;;;;;;5031220;28;20101;-68
2021/09/18 11:18:38;;;;;;;7.30;0.70;;;;;;;;;;5030319;28;20029;-68
2021/09/18 11:21:13;;;;;;;6.47;1.33;;;;;;;;;;5032912;28;20052;-68
2021/09/18 11:23:44;;;;;;;3.28;1.35;;;;;;;;;;5033654;28;20372;-67
2021/09/18 11:26:31;;;;;;;4.20;0.80;;;;;;;;;;5035225;28;20077;-67
2021/09/18 11:29:10;;;;;;;4.68;0.80;;;;;;;;;;5032577;28;20497;-67
2021/09/18 11:31:38;;;;;;;3.67;0.93;;;;;;;;;;5031798;28;20021;-67
2021/09/18 11:34:06;;;;;;;4.40;0.85;;;;;;;;;;5030982;28;20029;-68
2021/09/18 11:36:46;;;;;;;7.07;1.17;;;;;;;;;;5027936;28;20018;-68
2021/09/18 11:39:14;;;;;;;3.40;0.40;;;;;;;;;;5025609;28;20523;-68
2021/09/18 11:41:41;;;;;;;5.72;0.73;;;;;;;;;;5028620;28;20071;-68
2021/09/18 11:44:12;;;;;;;3.70;1.05;;;;;;;;;;5024286;28;20379;-68
2021/09/18 11:46:39;;;;;;;5.53;0.93;;;;;;;;;;5028858;28;20040;-68
2021/09/18 11:49:07;;;;;;;5.13;0.82;;;;;;;;;;5027531;28;20025;-68
2021/09/18 11:51:35;;;;;;;3.97;0.77;;;;;;;;;;5031460;28;20026;-68
2021/09/18 11:54:07;;;;;;;3.83;0.55;;;;;;;;;;5029300;28;20024;-68
2021/09/18 11:56:34;;;;;;;3.60;0.80;;;;;;;;;;5029258;28;20478;-68
2021/09/18 11:59:11;;;;;;;4.78;0.73;;;;;;;;;;5025057;28;20044;-68
2021/09/18 12:01:41;;;;;;;6.20;0.90;;;;;;;;;;5029820;28;20455;-68
2021/09/18 12:04:08;;;;;;;4.82;1.98;;;;;;;;;;5026289;28;20406;-68
2021/09/18 12:06:36;;;;;;;3.85;1.80;;;;;;;;;;5031056;28;20025;-69
2021/09/18 12:09:03;;;;;;;3.08;0.77;;;;;;;;;;5029544;28;20036;-68
2021/09/18 12:11:31;;;;;;;11.43;2.00;;;;;;;;;;5028533;28;20057;-67
2021/09/18 12:13:58;;;;;;;4.57;1.52;;;;;;;;;;5023765;28;20029;-68
2021/09/18 12:16:26;;;;;;;6.57;2.10;;;;;;;;;;5026282;28;20033;-67
2021/09/18 12:18:58;;;;;;;3.20;1.50;;;;;;;;;;5028929;28;20029;-67
2021/09/18 12:21:30;;;;;;;3.70;0.85;;;;;;;;;;5029277;28;20111;-67
2021/09/18 12:23:58;;;;;;;6.13;1.35;;;;;;;;;;5028452;28;20128;-67
2021/09/18 12:26:28;;;;;;;2.92;0.88;;;;;;;;;;5030266;28;20029;-67
2021/09/18 12:29:08;;;;;;;4.30;0.82;;;;;;;;;;5025293;28;20025;-68
2021/09/18 12:31:36;;;;;;;4.57;0.68;;;;;;;;;;5029266;28;20021;-68
2021/09/18 12:34:11;;;;;;;4.80;0.73;;;;;;;;;;5026580;28;20037;-68
2021/09/18 12:36:38;;;;;;;5.43;0.60;;;;;;;;;;5028579;28;20108;-67
2021/09/18 12:39:06;;;;;;;4.45;0.57;;;;;;;;;;5028888;28;20136;-68
2021/09/18 12:41:34;;;;;;;5.10;0.60;;;;;;;;;;5031734;28;20040;-68
2021/09/18 12:44:06;;;;;;;5.70;0.65;;;;;;;;;;5027944;28;20025;-68
2021/09/18 12:46:40;;;;;;;4.78;2.05;;;;;;;;;;5030648;28;20033;-68
2021/09/18 12:49:07;;;;;;;3.47;1.25;;;;;;;;;;5028193;28;20025;-68
2021/09/18 12:51:36;;;;;;;6.35;1.02;;;;;;;;;;5028324;28;20382;-68
2021/09/18 12:54:04;;;;;;;5.55;0.90;;;;;;;;;;5025844;28;20076;-68
2021/09/18 12:56:31;;;;;;;5.03;0.50;;;;;;;;;;5028533;28;20112;-68
2021/09/18 12:59:07;;;;;;;2.70;0.30;;;;;;;;;;5028878;28;20045;-68
2021/09/18 13:01:39;;;;;;;3.40;0.30;;;;;;;;;;5030746;28;20017;-68
2021/09/18 13:04:07;;;;;;;2.42;0.68;;;;;;;;;;5028293;28;20075;-68
2021/09/18 13:06:35;;;;;;;3.33;0.80;;;;;;;;;;5027541;28;20100;-68
2021/09/18 13:09:07;;;;;;;4.47;0.85;;;;;;;;;;5029319;28;20034;-68
2021/09/18 13:11:47;;;;;;;3.45;0.77;;;;;;;;;;5030490;28;20477;-68
2021/09/18 13:14:16;;;;;;;5.30;1.70;;;;;;;;;;5025654;28;20035;-68
2021/09/18 13:16:55;;;;;;;4.43;1.55;;;;;;;;;;5034167;28;20022;-68
2021/09/18 13:19:23;;;;;;;3.55;0.88;;;;;;;;;;5033731;28;20049;-68
2021/09/18 13:21:50;;;;;;;3.83;1.27;;;;;;;;;;5033381;28;20045;-68
2021/09/18 13:24:17;;;;;;;6.68;1.67;;;;;;;;;;5031892;28;20021;-68
2021/09/18 13:26:44;;;;;;;14.98;2.33;;;;;;;;;;5032638;28;20037;-68
2021/09/18 13:29:12;;;;;;;2.25;0.88;;;;;;;;;;5031785;28;20038;-68
2021/09/18 13:31:39;;;;;;;5.22;1.27;;;;;;;;;;5034341;28;20493;-68
2021/09/18 13:34:06;;;;;;;1.58;0.55;;;;;;;;;;5030866;28;20029;-68
2021/09/18 13:36:33;;;;;;;3.72;0.80;;;;;;;;;;5031299;28;20018;-68
2021/09/18 13:39:00;;;;;;;4.93;0.98;;;;;;;;;;5030893;28;20371;-68
2021/09/18 13:41:27;;;;;;;6.25;1.33;;;;;;;;;;5032260;28;20079;-67
2021/09/18 13:43:54;;;;;;;3.65;1.00;;;;;;;;;;5030137;28;20091;-68
2021/09/18 13:46:22;;;;;;;5.25;0.98;;;;;;;;;;5032996;28;20017;-68
2021/09/18 13:48:49;;;;;;;3.47;1.00;;;;;;;;;;5027514;28;20473;-68
2021/09/18 13:51:16;;;;;;;2.85;0.75;;;;;;;;;;5032262;28;20036;-68
2021/09/18 13:53:43;;;;;;;3.35;0.50;;;;;;;;;;5028792;28;20082;-68
2021/09/18 13:56:10;;;;;;;3.30;0.68;;;;;;;;;;5034496;28;20080;-68
2021/09/18 13:58:39;;;;;;;2.25;0.40;;;;;;;;;;5033484;28;20470;-68
2021/09/18 14:01:07;;;;;;;3.05;0.43;;;;;;;;;;5033502;28;20097;-68
2021/09/18 14:03:34;;;;;;;2.60;0.50;;;;;;;;;;5031237;28;20130;-68
2021/09/18 14:06:02;;;;;;;3.20;0.50;;;;;;;;;;5033880;28;20108;-68
2021/09/18 14:08:29;;;;;;;2.15;0.40;;;;;;;;;;5030908;28;20067;-68
2021/09/18 14:10:57;;;;;;;3.60;0.50;;;;;;;;;;5032286;28;20553;-68
2021/09/18 14:13:24;;;;;;;2.60;0.50;;;;;;;;;;5032763;28;20037;-68
2021/09/18 14:15:51;;;;;;;6.50;1.00;;;;;;;;;;5030844;28;20028;-68
2021/09/18 14:18:18;;;;;;;3.15;0.70;;;;;;;;;;5032217;28;20053;-68
2021/09/18 14:20:46;;;;;;;5.90;1.40;;;;;;;;;;5034134;28;20130;-68
2021/09/18 14:23:13;;;;;;;4.63;2.08;;;;;;;;;;5031925;28;20021;-68
2021/09/18 14:25:41;;;;;;;3.05;1.17;;;;;;;;;;5032656;28;20466;-67
2021/09/18 14:28:08;;;;;;;4.22;0.77;;;;;;;;;;5031575;28;20029;-68
2021/09/18 14:30:36;;;;;;;4.07;1.20;;;;;;;;;;5033784;28;20053;-68
2021/09/18 14:33:03;;;;;;;5.53;2.83;;;;;;;;;;5031973;28;20095;-68
2021/09/18 14:35:30;;;;;;;3.47;0.80;;;;;;;;;;5032541;28;20167;-68
2021/09/18 14:37:57;;;;;;;2.58;0.50;;;;;;;;;;5030704;28;20383;-68
2021/09/18 14:40:24;;;;;;;4.90;0.80;;;;;;;;;;5028641;28;20176;-68
2021/09/18 14:42:52;;;;;;;2.67;0.50;;;;;;;;;;5027500;28;20691;-68
2021/09/18 14:45:19;;;;;;;3.97;0.60;;;;;;;;;;5030517;28;20122;-68
2021/09/18 14:47:46;;;;;;;3.83;0.70;;;;;;;;;;5031332;28;20047;-67
2021/09/18 14:50:13;;;;;;;4.60;0.95;;;;;;;;;;5031739;28;20026;-68
2021/09/18 14:52:40;;;;;;;3.88;0.90;;;;;;;;;;5029259;28;20478;-68
2021/09/18 14:55:08;;;;;;;5.70;1.33;;;;;;;;;;5031842;28;20075;-68